sensor_id;sensor_type;location;lat;lon;timestamp;pressure;altitude;pressure_sealevel;temperature;humidity
46127;BME280;31859;55.030;-1.550;2022-10-30T00:01:02;69454.71;;;19.57;95.59
46127;BME280;31859;55.030;-1.550;2022-10-30T00:03:29;69454.71;;;19.79;95.59
46127;BME280;31859;55.030;-1.550;2022-10-30T00:05:56;69454.71;;;20.06;95.59
46127;BME280;31859;55.030;-1.550;2022-10-30T00:08:23;69454.71;;;20.06;95.59
46127;BME280;31859;55.030;-1.550;2022-10-30T00:10:51;69454.71;;;20.06;95.59
46127;BME280;31859;55.030;-1.550;2022-10-30T00:13:20;69454.71;;;20.06;95.59
46127;BME280;31859;55.030;-1.550;2022-10-30T00:15:49;69454.71;;;19.79;95.59
46127;BME280;31859;55.030;-1.550;2022-10-30T00:18:17;69454.71;;;19.79;95.59
46127;BME280;31859;55.030;-1.550;2022-10-30T00:20:45;69454.71;;;20.06;95.59
46127;BME280;31859;55.030;-1.550;2022-10-30T00:23:12;69454.71;;;19.79;95.59
46127;BME280;31859;55.030;-1.550;2022-10-30T00:25:39;69454.71;;;20.06;95.59
46127;BME280;31859;55.030;-1.550;2022-10-30T00:28:08;69454.71;;;19.79;95.59
46127;BME280;31859;55.030;-1.550;2022-10-30T00:30:36;69454.71;;;19.79;95.59
46127;BME280;31859;55.030;-1.550;2022-10-30T00:33:04;69454.71;;;20.06;95.59
46127;BME280;31859;55.030;-1.550;2022-10-30T00:35:31;69454.71;;;20.06;95.59
46127;BME280;31859;55.030;-1.550;2022-10-30T00:37:59;69454.71;;;20.06;95.59
46127;BME280;31859;55.030;-1.550;2022-10-30T00:40:28;69454.71;;;20.06;95.59
46127;BME280;31859;55.030;-1.550;2022-10-30T00:42:55;69454.71;;;20.06;95.59
46127;BME280;31859;55.030;-1.550;2022-10-30T00:45:22;69454.71;;;20.06;95.59
46127;BME280;31859;55.030;-1.550;2022-10-30T00:47:52;69454.71;;;20.06;95.59
46127;BME280;31859;55.030;-1.550;2022-10-30T00:50:23;69454.71;;;20.06;95.59
46127;BME280;31859;55.030;-1.550;2022-10-30T00:52:56;69454.71;;;20.28;95.59
46127;BME280;31859;55.030;-1.550;2022-10-30T00:55:30;69454.71;;;20.06;95.59
46127;BME280;31859;55.030;-1.550;2022-10-30T00:58:00;69454.71;;;20.55;95.59
46127;BME280;31859;55.030;-1.550;2022-10-30T01:00:30;69454.71;;;20.28;95.59
46127;BME280;31859;55.030;-1.550;2022-10-30T01:02:57;69454.71;;;20.55;95.59
46127;BME280;31859;55.030;-1.550;2022-10-30T01:05:27;69454.71;;;20.06;95.59
46127;BME280;31859;55.030;-1.550;2022-10-30T01:07:54;69454.71;;;20.55;95.59
46127;BME280;31859;55.030;-1.550;2022-10-30T01:10:23;69454.71;;;20.28;95.59
46127;BME280;31859;55.030;-1.550;2022-10-30T01:12:52;69454.71;;;20.06;95.59
46127;BME280;31859;55.030;-1.550;2022-10-30T01:15:27;69454.71;;;20.06;95.59
46127;BME280;31859;55.030;-1.550;2022-10-30T01:18:07;69454.71;;;20.06;95.59
46127;BME280;31859;55.030;-1.550;2022-10-30T01:21:03;69454.71;;;20.55;95.59
46127;BME280;31859;55.030;-1.550;2022-10-30T01:23:43;69454.71;;;20.55;95.59
46127;BME280;31859;55.030;-1.550;2022-10-30T01:26:22;69454.71;;;20.28;95.59
46127;BME280;31859;55.030;-1.550;2022-10-30T01:29:07;69454.71;;;20.28;95.59
46127;BME280;31859;55.030;-1.550;2022-10-30T01:31:48;69454.71;;;20.55;95.59
46127;BME280;31859;55.030;-1.550;2022-10-30T01:34:19;69454.71;;;20.06;95.59
46127;BME280;31859;55.030;-1.550;2022-10-30T01:36:53;69454.71;;;20.55;95.59
46127;BME280;31859;55.030;-1.550;2022-10-30T01:39:25;69454.71;;;20.55;95.59
46127;BME280;31859;55.030;-1.550;2022-10-30T01:41:54;69454.71;;;20.55;95.59
46127;BME280;31859;55.030;-1.550;2022-10-30T01:44:25;69454.71;;;20.28;95.59
46127;BME280;31859;55.030;-1.550;2022-10-30T01:47:06;69454.71;;;20.28;95.59
46127;BME280;31859;55.030;-1.550;2022-10-30T01:49:51;69454.71;;;20.28;95.59
46127;BME280;31859;55.030;-1.550;2022-10-30T01:52:32;69454.71;;;20.28;95.59
46127;BME280;31859;55.030;-1.550;2022-10-30T01:55:05;69454.71;;;20.28;95.59
46127;BME280;31859;55.030;-1.550;2022-10-30T01:57:39;69454.71;;;20.06;95.59
46127;BME280;31859;55.030;-1.550;2022-10-30T02:00:11;69454.71;;;20.28;95.59
46127;BME280;31859;55.030;-1.550;2022-10-30T02:02:40;69454.71;;;20.55;95.59
46127;BME280;31859;55.030;-1.550;2022-10-30T02:05:12;69454.71;;;20.06;95.59
46127;BME280;31859;55.030;-1.550;2022-10-30T02:07:43;69454.71;;;20.28;95.59
46127;BME280;31859;55.030;-1.550;2022-10-30T02:10:11;69454.71;;;20.06;95.59
46127;BME280;31859;55.030;-1.550;2022-10-30T02:12:39;69454.71;;;20.55;95.59
46127;BME280;31859;55.030;-1.550;2022-10-30T02:15:08;69454.71;;;20.28;95.59
46127;BME280;31859;55.030;-1.550;2022-10-30T02:17:35;69454.71;;;20.55;95.59
46127;BME280;31859;55.030;-1.550;2022-10-30T02:20:03;69454.71;;;20.06;95.59
46127;BME280;31859;55.030;-1.550;2022-10-30T02:22:35;69454.71;;;20.55;95.59
46127;BME280;31859;55.030;-1.550;2022-10-30T02:25:02;69454.71;;;20.55;95.59
46127;BME280;31859;55.030;-1.550;2022-10-30T02:27:28;69454.71;;;20.28;95.59
46127;BME280;31859;55.030;-1.550;2022-10-30T02:29:55;69454.71;;;20.06;95.59
46127;BME280;31859;55.030;-1.550;2022-10-30T02:32:22;69454.71;;;20.55;95.59
46127;BME280;31859;55.030;-1.550;2022-10-30T02:34:49;69454.71;;;20.55;95.59
46127;BME280;31859;55.030;-1.550;2022-10-30T02:37:16;69454.71;;;20.77;95.59
46127;BME280;31859;55.030;-1.550;2022-10-30T02:39:43;69454.71;;;20.55;95.59
46127;BME280;31859;55.030;-1.550;2022-10-30T02:42:10;69454.71;;;20.55;95.59
46127;BME280;31859;55.030;-1.550;2022-10-30T02:44:37;69454.71;;;20.55;95.59
46127;BME280;31859;55.030;-1.550;2022-10-30T02:47:05;69454.71;;;20.55;95.59
46127;BME280;31859;55.030;-1.550;2022-10-30T02:49:32;69454.71;;;20.55;95.59
46127;BME280;31859;55.030;-1.550;2022-10-30T02:51:59;69454.71;;;20.55;95.59
46127;BME280;31859;55.030;-1.550;2022-10-30T02:54:26;69454.71;;;20.06;95.59
46127;BME280;31859;55.030;-1.550;2022-10-30T02:56:54;69454.71;;;20.06;95.59
46127;BME280;31859;55.030;-1.550;2022-10-30T02:59:21;69454.71;;;20.06;95.59
46127;BME280;31859;55.030;-1.550;2022-10-30T03:01:48;69454.71;;;20.55;95.59
46127;BME280;31859;55.030;-1.550;2022-10-30T03:04:14;69454.71;;;20.06;95.59
46127;BME280;31859;55.030;-1.550;2022-10-30T03:06:41;69454.71;;;20.28;95.59
46127;BME280;31859;55.030;-1.550;2022-10-30T03:09:09;69454.71;;;20.28;95.59
46127;BME280;31859;55.030;-1.550;2022-10-30T03:11:36;69454.71;;;20.06;95.59
46127;BME280;31859;55.030;-1.550;2022-10-30T03:14:03;69454.71;;;20.28;95.59
46127;BME280;31859;55.030;-1.550;2022-10-30T03:16:31;69454.71;;;20.28;95.59
46127;BME280;31859;55.030;-1.550;2022-10-30T03:18:59;69454.71;;;20.06;95.59
46127;BME280;31859;55.030;-1.550;2022-10-30T03:21:27;69454.71;;;20.06;95.59
46127;BME280;31859;55.030;-1.550;2022-10-30T03:23:55;69454.71;;;20.06;95.59
46127;BME280;31859;55.030;-1.550;2022-10-30T03:26:22;69454.71;;;20.06;95.59
46127;BME280;31859;55.030;-1.550;2022-10-30T03:28:49;69454.71;;;20.06;95.59
46127;BME280;31859;55.030;-1.550;2022-10-30T03:31:18;69454.71;;;20.06;95.59
46127;BME280;31859;55.030;-1.550;2022-10-30T03:33:45;69454.71;;;20.06;95.59
46127;BME280;31859;55.030;-1.550;2022-10-30T03:36:13;69454.71;;;20.06;95.59
46127;BME280;31859;55.030;-1.550;2022-10-30T03:38:41;69454.71;;;20.06;95.59
46127;BME280;31859;55.030;-1.550;2022-10-30T03:41:08;69454.71;;;20.55;95.59
46127;BME280;31859;55.030;-1.550;2022-10-30T03:43:36;69454.71;;;20.06;95.59
46127;BME280;31859;55.030;-1.550;2022-10-30T03:46:03;69454.71;;;20.55;95.59
46127;BME280;31859;55.030;-1.550;2022-10-30T03:48:30;69454.71;;;20.06;95.59
46127;BME280;31859;55.030;-1.550;2022-10-30T03:50:58;69454.71;;;20.06;95.59
46127;BME280;31859;55.030;-1.550;2022-10-30T03:53:28;69454.71;;;20.06;95.59
46127;BME280;31859;55.030;-1.550;2022-10-30T03:55:57;69454.71;;;20.06;95.59
46127;BME280;31859;55.030;-1.550;2022-10-30T03:58:26;69454.71;;;19.79;95.59
46127;BME280;31859;55.030;-1.550;2022-10-30T04:00:53;69454.71;;;19.79;95.59
46127;BME280;31859;55.030;-1.550;2022-10-30T04:03:21;69454.71;;;20.06;95.59
46127;BME280;31859;55.030;-1.550;2022-10-30T04:05:49;69454.71;;;20.06;95.59
46127;BME280;31859;55.030;-1.550;2022-10-30T04:08:18;69454.71;;;20.06;95.59
46127;BME280;31859;55.030;-1.550;2022-10-30T04:10:46;69454.71;;;20.06;95.59
46127;BME280;31859;55.030;-1.550;2022-10-30T04:13:16;69454.71;;;20.06;95.59
46127;BME280;31859;55.030;-1.550;2022-10-30T04:15:43;69454.71;;;20.28;95.59
46127;BME280;31859;55.030;-1.550;2022-10-30T04:18:12;69454.71;;;20.28;95.59
46127;BME280;31859;55.030;-1.550;2022-10-30T04:20:39;69454.71;;;20.06;95.59
46127;BME280;31859;55.030;-1.550;2022-10-30T04:23:09;69454.71;;;20.06;95.59
46127;BME280;31859;55.030;-1.550;2022-10-30T04:25:39;69454.71;;;20.55;95.59
46127;BME280;31859;55.030;-1.550;2022-10-30T04:28:07;69454.71;;;20.55;95.59
46127;BME280;31859;55.030;-1.550;2022-10-30T04:30:35;69454.71;;;20.55;95.59
46127;BME280;31859;55.030;-1.550;2022-10-30T04:33:04;69454.71;;;20.55;95.59
46127;BME280;31859;55.030;-1.550;2022-10-30T04:35:33;69454.71;;;20.77;95.59
46127;BME280;31859;55.030;-1.550;2022-10-30T04:38:02;69454.71;;;20.55;95.59
46127;BME280;31859;55.030;-1.550;2022-10-30T04:40:31;69454.71;;;20.55;95.59
46127;BME280;31859;55.030;-1.550;2022-10-30T04:42:59;69454.71;;;20.55;95.59
46127;BME280;31859;55.030;-1.550;2022-10-30T04:45:27;69454.71;;;20.55;95.59
46127;BME280;31859;55.030;-1.550;2022-10-30T04:48:00;69454.71;;;20.55;95.59
46127;BME280;31859;55.030;-1.550;2022-10-30T04:50:27;69454.71;;;20.55;95.59
46127;BME280;31859;55.030;-1.550;2022-10-30T04:52:59;69454.71;;;20.55;95.59
46127;BME280;31859;55.030;-1.550;2022-10-30T04:55:27;69454.71;;;20.55;95.59
46127;BME280;31859;55.030;-1.550;2022-10-30T04:57:56;69454.71;;;20.06;95.59
46127;BME280;31859;55.030;-1.550;2022-10-30T05:00:25;69454.71;;;20.06;95.59
46127;BME280;31859;55.030;-1.550;2022-10-30T05:02:52;69454.71;;;20.28;95.59
46127;BME280;31859;55.030;-1.550;2022-10-30T05:05:20;69454.71;;;20.06;95.59
46127;BME280;31859;55.030;-1.550;2022-10-30T05:07:47;69454.71;;;20.55;95.59
46127;BME280;31859;55.030;-1.550;2022-10-30T05:10:14;69454.71;;;20.55;95.59
46127;BME280;31859;55.030;-1.550;2022-10-30T05:12:43;69454.71;;;20.55;95.59
46127;BME280;31859;55.030;-1.550;2022-10-30T05:15:12;69454.71;;;20.55;95.59
46127;BME280;31859;55.030;-1.550;2022-10-30T05:17:40;69454.71;;;20.55;95.59
46127;BME280;31859;55.030;-1.550;2022-10-30T05:20:08;69454.71;;;20.06;95.59
46127;BME280;31859;55.030;-1.550;2022-10-30T05:22:35;69454.71;;;20.28;95.59
46127;BME280;31859;55.030;-1.550;2022-10-30T05:25:03;69454.71;;;20.55;95.59
46127;BME280;31859;55.030;-1.550;2022-10-30T05:27:30;69454.71;;;20.55;95.59
46127;BME280;31859;55.030;-1.550;2022-10-30T05:29:57;69454.71;;;20.55;95.59
46127;BME280;31859;55.030;-1.550;2022-10-30T05:32:24;69454.71;;;20.55;95.59
46127;BME280;31859;55.030;-1.550;2022-10-30T05:34:51;69454.71;;;20.55;95.59
46127;BME280;31859;55.030;-1.550;2022-10-30T05:37:19;69454.71;;;20.77;95.59
46127;BME280;31859;55.030;-1.550;2022-10-30T05:39:46;69454.71;;;20.55;95.59
46127;BME280;31859;55.030;-1.550;2022-10-30T05:42:13;69454.71;;;20.77;95.59
46127;BME280;31859;55.030;-1.550;2022-10-30T05:44:40;69454.71;;;20.55;95.59
46127;BME280;31859;55.030;-1.550;2022-10-30T05:47:09;69454.71;;;20.99;95.59
46127;BME280;31859;55.030;-1.550;2022-10-30T05:49:36;69454.71;;;20.55;95.59
46127;BME280;31859;55.030;-1.550;2022-10-30T05:52:04;69454.71;;;20.77;95.59
46127;BME280;31859;55.030;-1.550;2022-10-30T05:54:31;69454.71;;;20.77;95.59
46127;BME280;31859;55.030;-1.550;2022-10-30T05:56:59;69454.71;;;20.99;95.59
46127;BME280;31859;55.030;-1.550;2022-10-30T05:59:26;69454.71;;;20.99;95.59
46127;BME280;31859;55.030;-1.550;2022-10-30T06:01:53;69454.71;;;20.99;95.59
46127;BME280;31859;55.030;-1.550;2022-10-30T06:04:20;69454.71;;;20.99;95.59
46127;BME280;31859;55.030;-1.550;2022-10-30T06:06:47;69454.71;;;20.99;95.59
46127;BME280;31859;55.030;-1.550;2022-10-30T06:09:14;69454.71;;;20.55;95.59
46127;BME280;31859;55.030;-1.550;2022-10-30T06:11:41;69454.71;;;20.99;95.59
46127;BME280;31859;55.030;-1.550;2022-10-30T06:14:08;69454.71;;;20.99;95.59
46127;BME280;31859;55.030;-1.550;2022-10-30T06:16:36;69454.71;;;20.77;95.59
46127;BME280;31859;55.030;-1.550;2022-10-30T06:19:03;69454.71;;;20.99;95.59
46127;BME280;31859;55.030;-1.550;2022-10-30T06:21:30;69454.71;;;20.99;95.59
46127;BME280;31859;55.030;-1.550;2022-10-30T06:23:57;69454.71;;;20.99;95.59
46127;BME280;31859;55.030;-1.550;2022-10-30T06:26:24;69454.71;;;20.99;95.59
46127;BME280;31859;55.030;-1.550;2022-10-30T06:28:51;69454.71;;;20.55;95.59
46127;BME280;31859;55.030;-1.550;2022-10-30T06:31:19;69454.71;;;20.99;95.59
46127;BME280;31859;55.030;-1.550;2022-10-30T06:33:46;69454.71;;;20.99;95.59
46127;BME280;31859;55.030;-1.550;2022-10-30T06:36:13;69454.71;;;20.99;95.59
46127;BME280;31859;55.030;-1.550;2022-10-30T06:38:40;69454.71;;;20.99;95.59
46127;BME280;31859;55.030;-1.550;2022-10-30T06:41:08;69454.71;;;20.99;95.59
46127;BME280;31859;55.030;-1.550;2022-10-30T06:43:35;69454.71;;;20.99;95.59
46127;BME280;31859;55.030;-1.550;2022-10-30T06:46:03;69454.71;;;20.99;95.59
46127;BME280;31859;55.030;-1.550;2022-10-30T06:48:30;69454.71;;;20.99;95.59
46127;BME280;31859;55.030;-1.550;2022-10-30T06:50:59;69454.71;;;20.99;95.59
46127;BME280;31859;55.030;-1.550;2022-10-30T06:53:26;69454.71;;;20.77;95.59
46127;BME280;31859;55.030;-1.550;2022-10-30T06:55:55;69454.71;;;20.99;95.59
46127;BME280;31859;55.030;-1.550;2022-10-30T06:58:22;69454.71;;;20.99;95.59
46127;BME280;31859;55.030;-1.550;2022-10-30T07:00:50;69454.71;;;20.99;95.59
46127;BME280;31859;55.030;-1.550;2022-10-30T07:03:18;69454.71;;;20.99;95.59
46127;BME280;31859;55.030;-1.550;2022-10-30T07:05:45;69454.71;;;20.99;95.59
46127;BME280;31859;55.030;-1.550;2022-10-30T07:08:12;69454.71;;;20.99;95.59
46127;BME280;31859;55.030;-1.550;2022-10-30T07:10:40;69454.71;;;20.99;95.59
46127;BME280;31859;55.030;-1.550;2022-10-30T07:13:08;69454.71;;;20.99;95.59
46127;BME280;31859;55.030;-1.550;2022-10-30T07:15:35;69454.71;;;20.99;95.59
46127;BME280;31859;55.030;-1.550;2022-10-30T07:18:03;69454.71;;;20.99;95.59
46127;BME280;31859;55.030;-1.550;2022-10-30T07:20:31;69454.71;;;20.99;95.59
46127;BME280;31859;55.030;-1.550;2022-10-30T07:22:59;69454.71;;;20.99;95.59
46127;BME280;31859;55.030;-1.550;2022-10-30T07:25:27;69454.71;;;20.99;95.59
46127;BME280;31859;55.030;-1.550;2022-10-30T07:27:55;69454.71;;;20.99;95.59
46127;BME280;31859;55.030;-1.550;2022-10-30T07:30:24;69454.71;;;20.77;95.59
46127;BME280;31859;55.030;-1.550;2022-10-30T07:32:56;69454.71;;;20.99;95.59
46127;BME280;31859;55.030;-1.550;2022-10-30T07:35:24;69454.71;;;20.99;95.59
46127;BME280;31859;55.030;-1.550;2022-10-30T07:37:52;69454.71;;;20.99;95.59
46127;BME280;31859;55.030;-1.550;2022-10-30T07:40:19;69454.71;;;20.99;95.59
46127;BME280;31859;55.030;-1.550;2022-10-30T07:42:46;69454.71;;;20.77;95.59
46127;BME280;31859;55.030;-1.550;2022-10-30T07:45:13;69454.71;;;20.55;95.59
46127;BME280;31859;55.030;-1.550;2022-10-30T07:47:41;69454.71;;;20.77;95.59
46127;BME280;31859;55.030;-1.550;2022-10-30T07:50:10;69454.71;;;20.55;95.59
46127;BME280;31859;55.030;-1.550;2022-10-30T07:52:37;69454.71;;;20.55;95.59
46127;BME280;31859;55.030;-1.550;2022-10-30T07:55:05;69454.71;;;20.99;95.59
46127;BME280;31859;55.030;-1.550;2022-10-30T07:57:35;69454.71;;;20.99;95.59
46127;BME280;31859;55.030;-1.550;2022-10-30T08:00:04;69454.71;;;20.77;95.59
46127;BME280;31859;55.030;-1.550;2022-10-30T08:02:32;69454.71;;;20.77;95.59
46127;BME280;31859;55.030;-1.550;2022-10-30T08:04:59;69454.71;;;20.77;95.59
46127;BME280;31859;55.030;-1.550;2022-10-30T08:07:29;69454.71;;;20.28;95.59
46127;BME280;31859;55.030;-1.550;2022-10-30T08:09:56;69454.71;;;20.77;95.59
46127;BME280;31859;55.030;-1.550;2022-10-30T08:12:24;69454.71;;;20.55;95.59
46127;BME280;31859;55.030;-1.550;2022-10-30T08:14:52;69454.71;;;20.55;95.59
46127;BME280;31859;55.030;-1.550;2022-10-30T08:17:21;69454.71;;;20.28;95.59
46127;BME280;31859;55.030;-1.550;2022-10-30T08:19:48;69454.71;;;20.55;95.59
46127;BME280;31859;55.030;-1.550;2022-10-30T08:22:16;69454.71;;;20.55;95.59
46127;BME280;31859;55.030;-1.550;2022-10-30T08:24:43;69454.71;;;20.55;95.59
46127;BME280;31859;55.030;-1.550;2022-10-30T08:27:11;69454.71;;;20.55;95.59
46127;BME280;31859;55.030;-1.550;2022-10-30T08:29:38;69454.71;;;20.28;95.59
46127;BME280;31859;55.030;-1.550;2022-10-30T08:32:05;69454.71;;;20.06;95.59
46127;BME280;31859;55.030;-1.550;2022-10-30T08:34:33;69454.71;;;20.06;95.59
46127;BME280;31859;55.030;-1.550;2022-10-30T08:37:00;69454.71;;;20.06;95.59
46127;BME280;31859;55.030;-1.550;2022-10-30T08:39:27;69454.71;;;20.28;95.59
46127;BME280;31859;55.030;-1.550;2022-10-30T08:41:56;69454.71;;;20.55;95.59
46127;BME280;31859;55.030;-1.550;2022-10-30T08:44:24;69454.71;;;20.06;95.59
46127;BME280;31859;55.030;-1.550;2022-10-30T08:46:52;69454.71;;;20.28;95.59
46127;BME280;31859;55.030;-1.550;2022-10-30T08:49:20;69454.71;;;20.06;95.59
46127;BME280;31859;55.030;-1.550;2022-10-30T08:51:47;69454.71;;;20.55;95.59
46127;BME280;31859;55.030;-1.550;2022-10-30T08:54:14;69454.71;;;20.28;95.59
46127;BME280;31859;55.030;-1.550;2022-10-30T08:56:42;69454.71;;;20.55;95.59
46127;BME280;31859;55.030;-1.550;2022-10-30T08:59:09;69454.71;;;20.55;95.59
46127;BME280;31859;55.030;-1.550;2022-10-30T09:01:36;69454.71;;;20.28;95.59
46127;BME280;31859;55.030;-1.550;2022-10-30T09:04:04;69454.71;;;20.55;95.59
46127;BME280;31859;55.030;-1.550;2022-10-30T09:06:31;69454.71;;;20.77;95.59
46127;BME280;31859;55.030;-1.550;2022-10-30T09:08:58;69454.71;;;20.55;95.59
46127;BME280;31859;55.030;-1.550;2022-10-30T09:11:26;69454.71;;;20.55;95.59
46127;BME280;31859;55.030;-1.550;2022-10-30T09:13:53;69454.71;;;20.77;95.59
46127;BME280;31859;55.030;-1.550;2022-10-30T09:16:20;69454.71;;;20.55;95.59
46127;BME280;31859;55.030;-1.550;2022-10-30T09:18:47;69454.71;;;20.55;95.59
46127;BME280;31859;55.030;-1.550;2022-10-30T09:21:15;69454.71;;;20.28;95.59
46127;BME280;31859;55.030;-1.550;2022-10-30T09:23:42;69454.71;;;20.55;95.59
46127;BME280;31859;55.030;-1.550;2022-10-30T09:26:10;69454.71;;;20.55;95.59
46127;BME280;31859;55.030;-1.550;2022-10-30T09:28:37;69454.71;;;20.55;95.59
46127;BME280;31859;55.030;-1.550;2022-10-30T09:31:05;69454.71;;;20.55;95.59
46127;BME280;31859;55.030;-1.550;2022-10-30T09:33:32;69454.71;;;20.77;95.59
46127;BME280;31859;55.030;-1.550;2022-10-30T09:35:59;69454.71;;;20.55;95.59
46127;BME280;31859;55.030;-1.550;2022-10-30T09:38:27;69454.71;;;20.55;95.59
46127;BME280;31859;55.030;-1.550;2022-10-30T09:41:09;69454.71;;;20.77;95.59
46127;BME280;31859;55.030;-1.550;2022-10-30T09:43:52;69454.71;;;20.77;95.59
46127;BME280;31859;55.030;-1.550;2022-10-30T09:46:32;69454.71;;;20.99;95.59
46127;BME280;31859;55.030;-1.550;2022-10-30T09:49:11;69454.71;;;20.55;95.59
46127;BME280;31859;55.030;-1.550;2022-10-30T09:51:52;69454.71;;;20.55;95.59
46127;BME280;31859;55.030;-1.550;2022-10-30T09:54:35;69454.71;;;20.55;95.59
46127;BME280;31859;55.030;-1.550;2022-10-30T09:57:11;69454.71;;;20.55;95.59
46127;BME280;31859;55.030;-1.550;2022-10-30T09:59:50;69454.71;;;20.55;95.59
46127;BME280;31859;55.030;-1.550;2022-10-30T10:02:31;69454.71;;;20.28;95.59
46127;BME280;31859;55.030;-1.550;2022-10-30T10:05:04;69454.71;;;20.55;95.59
46127;BME280;31859;55.030;-1.550;2022-10-30T10:07:36;69454.71;;;20.28;95.59
46127;BME280;31859;55.030;-1.550;2022-10-30T10:10:08;69454.71;;;20.06;95.59
46127;BME280;31859;55.030;-1.550;2022-10-30T10:12:39;69454.71;;;20.55;95.59
46127;BME280;31859;55.030;-1.550;2022-10-30T10:15:13;69454.71;;;20.28;95.59
46127;BME280;31859;55.030;-1.550;2022-10-30T10:17:44;69454.71;;;20.55;95.59
46127;BME280;31859;55.030;-1.550;2022-10-30T10:20:16;69454.71;;;20.28;95.59
46127;BME280;31859;55.030;-1.550;2022-10-30T10:22:48;69454.71;;;20.55;95.59
46127;BME280;31859;55.030;-1.550;2022-10-30T10:25:18;69454.71;;;20.55;95.59
46127;BME280;31859;55.030;-1.550;2022-10-30T10:27:59;69454.71;;;20.55;95.59
46127;BME280;31859;55.030;-1.550;2022-10-30T10:30:36;69454.71;;;20.55;95.59
46127;BME280;31859;55.030;-1.550;2022-10-30T10:33:19;69454.71;;;20.55;95.59
46127;BME280;31859;55.030;-1.550;2022-10-30T10:35:59;69454.71;;;20.06;95.59
46127;BME280;31859;55.030;-1.550;2022-10-30T10:38:38;69454.71;;;19.79;95.59
46127;BME280;31859;55.030;-1.550;2022-10-30T10:41:15;69454.71;;;20.06;95.59
46127;BME280;31859;55.030;-1.550;2022-10-30T10:43:58;69454.71;;;19.57;95.59
46127;BME280;31859;55.030;-1.550;2022-10-30T10:46:37;69454.71;;;20.06;95.59
46127;BME280;31859;55.030;-1.550;2022-10-30T10:49:19;69454.71;;;20.28;95.59
46127;BME280;31859;55.030;-1.550;2022-10-30T10:51:54;69454.71;;;20.55;95.59
46127;BME280;31859;55.030;-1.550;2022-10-30T10:54:26;69454.71;;;20.55;95.59
46127;BME280;31859;55.030;-1.550;2022-10-30T10:56:55;69454.71;;;20.55;95.59
46127;BME280;31859;55.030;-1.550;2022-10-30T10:59:31;69454.71;;;20.28;95.59
46127;BME280;31859;55.030;-1.550;2022-10-30T11:02:23;69454.71;;;20.28;95.59
46127;BME280;31859;55.030;-1.550;2022-10-30T11:05:00;69454.71;;;20.06;95.59
46127;BME280;31859;55.030;-1.550;2022-10-30T11:07:32;69454.71;;;20.55;95.59
46127;BME280;31859;55.030;-1.550;2022-10-30T11:10:00;69454.71;;;20.55;95.59
46127;BME280;31859;55.030;-1.550;2022-10-30T11:12:28;69454.71;;;20.28;95.59
46127;BME280;31859;55.030;-1.550;2022-10-30T11:14:57;69454.71;;;20.55;95.59
46127;BME280;31859;55.030;-1.550;2022-10-30T11:17:33;69454.71;;;20.99;95.59
46127;BME280;31859;55.030;-1.550;2022-10-30T11:20:13;69454.71;;;20.55;95.59
46127;BME280;31859;55.030;-1.550;2022-10-30T11:22:46;69454.71;;;20.55;95.59
46127;BME280;31859;55.030;-1.550;2022-10-30T11:25:19;69454.71;;;20.99;95.59
46127;BME280;31859;55.030;-1.550;2022-10-30T11:27:48;69454.71;;;20.99;95.59
46127;BME280;31859;55.030;-1.550;2022-10-30T11:30:17;69454.71;;;20.99;95.59
46127;BME280;31859;55.030;-1.550;2022-10-30T11:32:45;69454.71;;;20.99;95.59
46127;BME280;31859;55.030;-1.550;2022-10-30T11:35:14;69454.71;;;20.28;95.59
46127;BME280;31859;55.030;-1.550;2022-10-30T11:37:43;69454.71;;;20.28;95.59
46127;BME280;31859;55.030;-1.550;2022-10-30T11:40:17;69454.71;;;20.06;95.59
46127;BME280;31859;55.030;-1.550;2022-10-30T11:42:47;69454.71;;;20.28;95.59
46127;BME280;31859;55.030;-1.550;2022-10-30T11:45:17;69454.71;;;20.55;95.59
46127;BME280;31859;55.030;-1.550;2022-10-30T11:47:46;69454.71;;;20.55;95.59
46127;BME280;31859;55.030;-1.550;2022-10-30T11:50:17;69454.71;;;20.55;95.59
46127;BME280;31859;55.030;-1.550;2022-10-30T11:52:46;69454.71;;;20.55;95.59
46127;BME280;31859;55.030;-1.550;2022-10-30T11:55:17;69454.71;;;20.55;95.59
46127;BME280;31859;55.030;-1.550;2022-10-30T11:57:48;69454.71;;;20.99;95.59
46127;BME280;31859;55.030;-1.550;2022-10-30T12:00:18;69454.71;;;20.99;95.59
46127;BME280;31859;55.030;-1.550;2022-10-30T12:02:48;69454.71;;;20.55;95.59
46127;BME280;31859;55.030;-1.550;2022-10-30T12:05:36;69454.71;;;20.55;95.59
46127;BME280;31859;55.030;-1.550;2022-10-30T12:08:20;69454.71;;;20.55;95.59
46127;BME280;31859;55.030;-1.550;2022-10-30T12:10:57;69454.71;;;20.99;95.59
46127;BME280;31859;55.030;-1.550;2022-10-30T12:13:26;69454.71;;;20.99;95.59
46127;BME280;31859;55.030;-1.550;2022-10-30T12:16:26;69454.71;;;20.55;95.59
46127;BME280;31859;55.030;-1.550;2022-10-30T12:18:58;69454.71;;;20.99;95.59
46127;BME280;31859;55.030;-1.550;2022-10-30T12:21:29;69454.71;;;20.55;95.59
46127;BME280;31859;55.030;-1.550;2022-10-30T12:24:03;69454.71;;;20.28;95.59
46127;BME280;31859;55.030;-1.550;2022-10-30T12:26:30;69454.71;;;20.06;95.59
46127;BME280;31859;55.030;-1.550;2022-10-30T12:28:59;69454.71;;;20.06;95.59
46127;BME280;31859;55.030;-1.550;2022-10-30T12:31:35;69454.71;;;19.57;95.59
46127;BME280;31859;55.030;-1.550;2022-10-30T12:34:21;69454.71;;;19.79;95.59
46127;BME280;31859;55.030;-1.550;2022-10-30T12:36:55;69454.71;;;19.57;95.59
46127;BME280;31859;55.030;-1.550;2022-10-30T12:39:26;69454.71;;;19.57;95.59
46127;BME280;31859;55.030;-1.550;2022-10-30T12:41:59;69454.71;;;19.57;95.59
46127;BME280;31859;55.030;-1.550;2022-10-30T12:44:34;69454.71;;;19.08;95.59
46127;BME280;31859;55.030;-1.550;2022-10-30T12:47:05;69454.71;;;19.08;95.59
46127;BME280;31859;55.030;-1.550;2022-10-30T12:49:40;69454.71;;;20.06;95.59
46127;BME280;31859;55.030;-1.550;2022-10-30T12:52:12;69454.71;;;20.06;95.59
46127;BME280;31859;55.030;-1.550;2022-10-30T12:54:47;69454.71;;;19.57;95.59
46127;BME280;31859;55.030;-1.550;2022-10-30T12:57:19;69454.71;;;19.08;95.59
46127;BME280;31859;55.030;-1.550;2022-10-30T13:00:01;69454.71;;;18.86;95.59
46127;BME280;31859;55.030;-1.550;2022-10-30T13:02:41;69454.71;;;18.64;95.59
46127;BME280;31859;55.030;-1.550;2022-10-30T13:05:23;69454.71;;;18.64;95.59